createdAt,value
2024-02-08T00:02:00.830Z,16.83
2024-02-08T00:04:28.547Z,16.86
2024-02-08T00:06:56.199Z,16.88
2024-02-08T00:09:23.848Z,16.84
2024-02-08T00:11:52.773Z,16.82
2024-02-08T00:14:20.224Z,16.80
2024-02-08T00:16:47.760Z,16.81
2024-02-08T00:19:16.771Z,16.80
2024-02-08T00:21:45.501Z,16.81
2024-02-08T00:24:13.136Z,16.81
2024-02-08T00:26:42.496Z,16.79
2024-02-08T00:29:11.423Z,16.78
2024-02-08T00:31:39.368Z,16.84
2024-02-08T00:34:06.984Z,16.83
2024-02-08T00:36:34.483Z,16.82
2024-02-08T00:39:06.366Z,16.85
2024-02-08T00:41:33.944Z,16.89
2024-02-08T00:44:01.518Z,16.85
2024-02-08T00:46:30.379Z,16.88
2024-02-08T00:48:57.996Z,16.83
2024-02-08T00:51:25.856Z,16.83
2024-02-08T00:53:53.472Z,16.83
2024-02-08T00:56:22.146Z,16.86
2024-02-08T00:58:49.767Z,16.86
2024-02-08T01:01:18.799Z,16.88
2024-02-08T01:03:47.889Z,16.83
2024-02-08T01:06:15.356Z,16.85
2024-02-08T01:08:42.948Z,16.90
2024-02-08T01:11:10.592Z,16.95
2024-02-08T01:13:38.235Z,16.91
2024-02-08T01:16:06.531Z,16.88
2024-02-08T01:18:34.555Z,16.93
2024-02-08T01:21:03.437Z,16.92
2024-02-08T01:23:30.933Z,16.86
2024-02-08T01:25:58.557Z,16.86
2024-02-08T01:28:28.110Z,16.88
2024-02-08T01:30:55.653Z,16.94
2024-02-08T01:33:23.453Z,16.94
2024-02-08T01:35:52.791Z,16.91
2024-02-08T01:38:22.595Z,16.90
2024-02-08T01:40:50.394Z,16.86
2024-02-08T01:43:18.998Z,16.91
2024-02-08T01:45:46.608Z,16.95
2024-02-08T01:48:16.649Z,16.94
2024-02-08T01:50:46.615Z,16.91
2024-02-08T01:53:15.513Z,16.86
2024-02-08T01:55:51.520Z,16.83
2024-02-08T01:58:21.293Z,16.78
2024-02-08T02:00:51.874Z,16.77
2024-02-08T02:03:21.088Z,16.81
2024-02-08T02:05:49.097Z,16.74
2024-02-08T02:08:17.977Z,16.73
2024-02-08T02:10:47.403Z,16.75
2024-02-08T02:13:14.941Z,16.76
2024-02-08T02:15:42.457Z,16.78
2024-02-08T02:18:11.137Z,16.77
2024-02-08T02:20:39.471Z,16.79
2024-02-08T02:23:10.521Z,16.75
2024-02-08T02:25:40.708Z,16.74
2024-02-08T02:28:09.208Z,16.73
2024-02-08T02:30:37.533Z,16.73
2024-02-08T02:33:05.524Z,16.73
2024-02-08T02:35:33.231Z,16.76
2024-02-08T02:38:03.133Z,16.75
2024-02-08T02:40:32.716Z,16.75
2024-02-08T02:43:00.301Z,16.74
2024-02-08T02:45:29.864Z,16.77
2024-02-08T02:47:57.989Z,16.74
2024-02-08T02:50:25.884Z,16.74
2024-02-08T02:52:53.692Z,16.74
2024-02-08T02:55:21.332Z,16.78
2024-02-08T02:57:50.171Z,16.80
2024-02-08T03:00:23.062Z,16.79
2024-02-08T03:02:51.592Z,16.78
2024-02-08T03:05:21.848Z,16.78
2024-02-08T03:07:50.341Z,16.83
2024-02-08T03:10:20.598Z,16.87
2024-02-08T03:12:51.153Z,16.83
2024-02-08T03:15:18.932Z,16.81
2024-02-08T03:17:47.021Z,16.85
2024-02-08T03:20:18.464Z,16.83
2024-02-08T03:22:46.182Z,16.82
2024-02-08T03:25:15.443Z,16.83
2024-02-08T03:27:43.935Z,16.81
2024-02-08T03:30:20.414Z,16.81
2024-02-08T03:32:50.616Z,16.83
2024-02-08T03:35:21.144Z,16.81
2024-02-08T03:37:49.996Z,16.80
2024-02-08T03:40:21.951Z,16.80
2024-02-08T03:42:50.519Z,16.80
2024-02-08T03:45:24.370Z,16.81
2024-02-08T03:47:52.312Z,16.80
2024-02-08T03:50:20.120Z,16.82
2024-02-08T03:52:47.721Z,16.90
2024-02-08T03:55:17.540Z,16.83
2024-02-08T03:57:50.057Z,16.80
2024-02-08T04:00:29.249Z,16.79
2024-02-08T04:02:58.874Z,16.79
2024-02-08T04:05:38.066Z,16.78
2024-02-08T04:08:23.509Z,16.79
2024-02-08T04:11:08.860Z,16.79
2024-02-08T04:13:54.758Z,16.85
2024-02-08T04:16:42.163Z,16.92
2024-02-08T04:19:27.579Z,16.86
2024-02-08T04:22:12.976Z,16.84
2024-02-08T04:24:58.223Z,16.78
2024-02-08T04:27:43.638Z,16.82
2024-02-08T04:30:29.472Z,16.79
2024-02-08T04:33:16.184Z,16.75
2024-02-08T04:36:01.401Z,16.82
2024-02-08T04:38:58.248Z,16.77
2024-02-08T04:41:43.222Z,16.80
2024-02-08T04:44:28.666Z,16.88
2024-02-08T04:47:14.203Z,16.83
2024-02-08T04:50:01.138Z,16.81
2024-02-08T04:52:46.519Z,16.74
2024-02-08T04:55:14.125Z,16.73
2024-02-08T04:57:41.703Z,16.75
2024-02-08T05:00:14.077Z,16.83
2024-02-08T05:02:42.429Z,16.83
2024-02-08T05:05:12.716Z,16.78
2024-02-08T05:07:40.587Z,16.76
2024-02-08T05:10:12.093Z,16.74
2024-02-08T05:12:39.937Z,16.78
2024-02-08T05:15:13.956Z,16.78
2024-02-08T05:17:41.482Z,16.77
2024-02-08T05:20:13.195Z,16.74
2024-02-08T05:22:41.890Z,16.74
2024-02-08T05:25:11.389Z,16.74
2024-02-08T05:27:39.524Z,16.76
2024-02-08T05:30:08.440Z,16.74
2024-02-08T05:32:36.870Z,16.76
2024-02-08T05:35:06.385Z,16.78
2024-02-08T05:37:35.473Z,16.76
2024-02-08T05:40:03.503Z,16.77
2024-02-08T05:42:31.273Z,16.78
2024-02-08T05:45:18.811Z,16.76
2024-02-08T05:47:46.610Z,16.78
2024-02-08T05:50:22.659Z,16.78
2024-02-08T05:52:58.030Z,16.79
2024-02-08T05:55:26.662Z,16.78
2024-02-08T05:57:54.617Z,16.82
2024-02-08T06:00:33.457Z,16.81
2024-02-08T06:03:04.037Z,16.80
2024-02-08T06:05:33.090Z,16.81
2024-02-08T06:08:03.891Z,16.81
2024-02-08T06:10:46.411Z,16.85
2024-02-08T06:13:15.363Z,16.83
2024-02-08T06:15:48.030Z,16.83
2024-02-08T06:18:21.422Z,16.90
2024-02-08T06:20:58.114Z,16.95
2024-02-08T06:23:28.214Z,16.87
2024-02-08T06:26:13.589Z,16.85
2024-02-08T06:28:47.940Z,16.80
2024-02-08T06:31:16.513Z,16.80
2024-02-08T06:34:06.083Z,16.80
2024-02-08T06:36:35.201Z,16.79
2024-02-08T06:39:21.263Z,16.80
2024-02-08T06:41:53.876Z,16.89
2024-02-08T06:44:39.493Z,16.86
2024-02-08T06:47:31.227Z,16.83
2024-02-08T06:50:16.526Z,16.81
2024-02-08T06:53:01.911Z,16.80
2024-02-08T06:55:48.373Z,16.80
2024-02-08T06:58:45.070Z,16.78
2024-02-08T07:01:44.704Z,16.78
2024-02-08T07:04:30.235Z,16.77
2024-02-08T07:07:15.317Z,16.79
2024-02-08T07:10:03.196Z,16.79
2024-02-08T07:12:49.939Z,16.77
2024-02-08T07:15:35.162Z,16.80
2024-02-08T07:18:20.567Z,16.78
2024-02-08T07:21:05.866Z,16.80
2024-02-08T07:23:51.203Z,16.78
2024-02-08T07:26:36.488Z,16.82
2024-02-08T07:29:28.405Z,16.80
2024-02-08T07:32:13.682Z,16.79
2024-02-08T07:34:59.587Z,16.79
2024-02-08T07:37:27.441Z,16.81
2024-02-08T07:40:02.376Z,16.82
2024-02-08T07:42:36.289Z,16.89
2024-02-08T07:45:06.837Z,16.92
2024-02-08T07:47:34.623Z,16.94
2024-02-08T07:50:06.393Z,16.92
2024-02-08T07:52:39.522Z,16.93
2024-02-08T07:55:21.482Z,16.94
2024-02-08T07:57:58.613Z,16.92
2024-02-08T08:00:43.216Z,16.95
2024-02-08T08:03:16.367Z,16.95
2024-02-08T08:05:45.417Z,16.94
2024-02-08T08:08:25.658Z,16.93
2024-02-08T08:10:57.705Z,16.97
2024-02-08T08:13:48.315Z,16.95
2024-02-08T08:16:35.136Z,16.93
2024-02-08T08:19:09.318Z,16.97
2024-02-08T08:22:00.065Z,16.95
2024-02-08T08:24:27.045Z,16.95
2024-02-08T08:27:07.546Z,16.97
2024-02-08T08:29:43.720Z,16.97
2024-02-08T08:32:30.840Z,16.95
2024-02-08T08:35:16.235Z,16.93
2024-02-08T08:37:46.451Z,16.95
2024-02-08T08:40:24.937Z,16.96
2024-02-08T08:42:55.750Z,16.96
2024-02-08T08:45:23.536Z,17.02
2024-02-08T08:47:54.807Z,17.04
2024-02-08T08:50:22.793Z,17.08
2024-02-08T08:52:50.580Z,17.08
2024-02-08T08:55:21.667Z,17.06
2024-02-08T08:57:55.191Z,17.02
2024-02-08T09:00:33.236Z,17.02
2024-02-08T09:03:05.683Z,17.04
2024-02-08T09:05:33.632Z,17.03
2024-02-08T09:08:01.700Z,17.09
2024-02-08T09:10:35.693Z,17.06
2024-02-08T09:13:08.116Z,17.05
2024-02-08T09:15:49.163Z,17.06
2024-02-08T09:18:18.283Z,17.14
2024-02-08T09:20:45.719Z,17.17
2024-02-08T09:23:18.680Z,17.18
2024-02-08T09:25:47.088Z,17.20
2024-02-08T09:28:28.554Z,17.24
2024-02-08T09:30:58.592Z,17.20
2024-02-08T09:33:37.076Z,17.24
2024-02-08T09:36:05.328Z,17.19
2024-02-08T09:38:44.277Z,17.17
2024-02-08T09:41:16.354Z,17.21
2024-02-08T09:43:45.874Z,17.20
2024-02-08T09:46:29.294Z,17.15
2024-02-08T09:49:00.802Z,17.15
2024-02-08T09:51:28.457Z,17.13
2024-02-08T09:54:15.989Z,17.13
2024-02-08T09:56:50.970Z,17.15
2024-02-08T09:59:40.615Z,17.16
2024-02-08T10:02:25.009Z,17.18
2024-02-08T10:04:58.236Z,17.17
2024-02-08T10:07:35.347Z,17.26
2024-02-08T10:10:16.434Z,17.21
2024-02-08T10:12:54.889Z,17.23
2024-02-08T10:15:27.493Z,17.23
2024-02-08T10:18:03.350Z,17.16
2024-02-08T10:20:46.519Z,17.14
2024-02-08T10:23:31.289Z,17.12
2024-02-08T10:26:17.303Z,17.14
2024-02-08T10:28:45.113Z,17.16
2024-02-08T10:31:23.587Z,17.19
2024-02-08T10:33:58.593Z,17.23
2024-02-08T10:36:36.577Z,17.21
2024-02-08T10:39:09.989Z,17.16
2024-02-08T10:41:40.120Z,17.10
2024-02-08T10:44:18.682Z,17.10
2024-02-08T10:46:47.275Z,17.24
2024-02-08T10:49:14.978Z,17.13
2024-02-08T10:51:44.775Z,17.12
2024-02-08T10:54:16.060Z,17.09
2024-02-08T10:56:48.972Z,17.07
2024-02-08T10:59:37.127Z,17.09
2024-02-08T11:02:10.005Z,17.13
2024-02-08T11:04:42.544Z,17.16
2024-02-08T11:07:18.436Z,17.12
2024-02-08T11:09:46.665Z,17.14
2024-02-08T11:12:19.249Z,17.14
2024-02-08T11:14:52.350Z,17.12
2024-02-08T11:17:22.314Z,17.09
2024-02-08T11:19:50.854Z,17.10
2024-02-08T11:22:35.917Z,17.10
2024-02-08T11:25:20.039Z,17.11
2024-02-08T11:27:49.703Z,17.10
2024-02-08T11:30:20.731Z,17.10
2024-02-08T11:33:03.225Z,17.10
2024-02-08T11:35:32.589Z,17.10
2024-02-08T11:38:12.090Z,17.08
2024-02-08T11:40:40.289Z,17.18
2024-02-08T11:43:09.254Z,17.22
2024-02-08T11:45:38.131Z,17.13
2024-02-08T11:48:10.076Z,17.13
2024-02-08T11:50:38.466Z,17.12
2024-02-08T11:53:06.853Z,17.09
2024-02-08T11:55:35.812Z,17.13
2024-02-08T11:58:06.802Z,17.11
2024-02-08T12:00:46.402Z,17.06
2024-02-08T12:03:17.742Z,17.04
2024-02-08T12:05:53.737Z,17.03
2024-02-08T12:08:31.379Z,17.03
2024-02-08T12:11:06.156Z,17.06
2024-02-08T12:13:40.069Z,17.06
2024-02-08T12:16:08.350Z,17.07
2024-02-08T12:18:37.567Z,17.05
2024-02-08T12:21:11.975Z,17.04
2024-02-08T12:23:42.397Z,17.04
2024-02-08T12:26:11.519Z,17.03
2024-02-08T12:28:41.139Z,17.04
2024-02-08T12:31:17.336Z,17.04
2024-02-08T12:33:46.497Z,17.04
2024-02-08T12:36:14.268Z,17.09
2024-02-08T12:38:43.405Z,17.11
2024-02-08T12:41:12.360Z,17.08
2024-02-08T12:43:39.745Z,17.08
2024-02-08T12:46:08.589Z,17.10
2024-02-08T12:48:36.167Z,17.09
2024-02-08T12:51:04.788Z,17.10
2024-02-08T12:53:32.338Z,17.10
2024-02-08T12:56:06.558Z,17.09
2024-02-08T12:58:35.556Z,17.08
2024-02-08T13:01:05.904Z,17.10
2024-02-08T13:03:35.429Z,17.09
2024-02-08T13:06:04.249Z,17.09
2024-02-08T13:08:34.322Z,17.08
2024-02-08T13:11:02.754Z,17.06
2024-02-08T13:13:30.569Z,17.14
2024-02-08T13:16:07.131Z,17.12
2024-02-08T13:18:35.876Z,17.10
2024-02-08T13:21:04.918Z,17.10
2024-02-08T13:23:34.154Z,17.12
2024-02-08T13:26:01.730Z,17.09
2024-02-08T13:28:33.774Z,17.08
2024-02-08T13:31:09.725Z,17.08
2024-02-08T13:33:39.753Z,17.07
2024-02-08T13:36:10.082Z,17.09
2024-02-08T13:38:40.867Z,17.07
2024-02-08T13:41:11.126Z,17.09
2024-02-08T13:43:40.329Z,17.12
2024-02-08T13:46:09.446Z,17.07
2024-02-08T13:48:37.271Z,17.08
2024-02-08T13:51:08.484Z,17.08
2024-02-08T13:53:38.465Z,17.09
2024-02-08T13:56:09.498Z,17.11
2024-02-08T13:58:37.881Z,17.10
2024-02-08T14:01:06.444Z,17.08
2024-02-08T14:03:36.797Z,17.09
2024-02-08T14:06:10.320Z,17.11
2024-02-08T14:08:42.430Z,17.14
2024-02-08T14:11:17.140Z,17.16
2024-02-08T14:13:45.575Z,17.14
2024-02-08T14:16:17.232Z,17.14
2024-02-08T14:18:51.715Z,17.11
2024-02-08T14:21:22.429Z,17.12
2024-02-08T14:23:52.803Z,17.19
2024-02-08T14:26:37.762Z,17.26
2024-02-08T14:29:06.712Z,17.26
2024-02-08T14:31:38.639Z,17.20
2024-02-08T14:34:10.902Z,17.24
2024-02-08T14:36:43.358Z,17.30
2024-02-08T14:39:28.046Z,17.30
2024-02-08T14:41:56.177Z,17.33
2024-02-08T14:44:32.506Z,17.31
2024-02-08T14:47:00.616Z,17.25
2024-02-08T14:49:30.937Z,17.24
2024-02-08T14:52:04.192Z,17.15
2024-02-08T14:54:32.838Z,17.08
2024-02-08T14:57:07.313Z,17.05
2024-02-08T14:59:42.656Z,17.02
2024-02-08T15:02:20.415Z,16.96
2024-02-08T15:04:53.942Z,16.76
2024-02-08T15:07:49.091Z,16.69
2024-02-08T15:10:21.859Z,16.66
2024-02-08T15:12:58.286Z,16.71
2024-02-08T15:15:32.569Z,16.70
2024-02-08T15:18:12.288Z,16.75
2024-02-08T15:20:45.184Z,16.70
2024-02-08T15:23:13.018Z,16.60
2024-02-08T15:25:45.203Z,16.64
2024-02-08T15:28:32.805Z,16.68
2024-02-08T15:31:13.355Z,16.60
2024-02-08T15:33:56.856Z,16.55
2024-02-08T15:36:33.378Z,16.62
2024-02-08T15:39:26.347Z,16.67
2024-02-08T15:41:53.482Z,16.66
2024-02-08T15:44:35.489Z,16.70
2024-02-08T15:47:05.649Z,16.55
2024-02-08T15:49:33.371Z,16.52
2024-02-08T15:52:06.076Z,16.54
2024-02-08T15:54:39.335Z,16.45
2024-02-08T15:57:11.195Z,16.51
2024-02-08T15:59:38.743Z,16.57
2024-02-08T16:02:06.517Z,16.53
2024-02-08T16:04:46.301Z,16.46
2024-02-08T16:07:16.104Z,16.31
2024-02-08T16:09:47.324Z,16.32
2024-02-08T16:12:24.713Z,16.24
2024-02-08T16:15:00.742Z,16.31
2024-02-08T16:17:40.168Z,16.28
2024-02-08T16:20:24.424Z,16.25
2024-02-08T16:23:05.656Z,16.28
2024-02-08T16:25:54.876Z,16.14
2024-02-08T16:28:24.160Z,16.14
2024-02-08T16:31:11.557Z,16.21
2024-02-08T16:33:55.538Z,16.20
2024-02-08T16:36:35.243Z,16.25
2024-02-08T16:39:31.045Z,16.38
2024-02-08T16:42:01.488Z,16.29
2024-02-08T16:44:36.333Z,16.39
2024-02-08T16:47:07.358Z,16.45
2024-02-08T16:49:41.651Z,16.48
2024-02-08T16:52:20.223Z,16.47
2024-02-08T16:55:01.196Z,16.49
2024-02-08T16:57:32.523Z,16.53
2024-02-08T17:00:20.237Z,16.48
2024-02-08T17:03:05.259Z,16.41
2024-02-08T17:05:49.933Z,16.50
2024-02-08T17:08:21.701Z,16.51
2024-02-08T17:10:56.964Z,16.48
2024-02-08T17:13:29.064Z,16.48
2024-02-08T17:16:04.927Z,16.40
2024-02-08T17:18:45.887Z,16.41
2024-02-08T17:21:37.734Z,16.40
2024-02-08T17:24:09.504Z,16.48
2024-02-08T17:26:51.290Z,16.50
2024-02-08T17:29:21.469Z,16.45
2024-02-08T17:31:49.625Z,16.50
2024-02-08T17:34:22.685Z,16.45
2024-02-08T17:36:54.533Z,16.32
2024-02-08T17:39:26.676Z,16.33
2024-02-08T17:41:58.053Z,16.30
2024-02-08T17:44:31.005Z,16.32
2024-02-08T17:47:01.236Z,16.21
2024-02-08T17:49:31.196Z,16.05
2024-02-08T17:52:00.683Z,16.01
2024-02-08T17:54:32.974Z,16.06
2024-02-08T17:57:03.984Z,16.06
2024-02-08T17:59:31.743Z,16.08
2024-02-08T18:02:05.296Z,16.16
2024-02-08T18:04:37.403Z,16.24
2024-02-08T18:07:10.501Z,16.26
2024-02-08T18:09:41.737Z,16.31
2024-02-08T18:12:22.340Z,16.31
2024-02-08T18:14:51.014Z,16.29
2024-02-08T18:17:20.089Z,16.35
2024-02-08T18:19:47.941Z,16.35
2024-02-08T18:22:16.427Z,16.39
2024-02-08T18:24:45.425Z,16.38
2024-02-08T18:27:15.193Z,16.41
2024-02-08T18:29:45.873Z,16.18
2024-02-08T18:32:18.830Z,16.12
2024-02-08T18:34:50.102Z,15.95
2024-02-08T18:37:25.725Z,15.97
2024-02-08T18:39:53.626Z,15.84
2024-02-08T18:42:23.363Z,15.77
2024-02-08T18:44:50.974Z,15.76
2024-02-08T18:47:19.462Z,15.68
2024-02-08T18:49:50.390Z,15.68
2024-02-08T18:52:19.232Z,15.85
2024-02-08T18:54:48.942Z,15.86
2024-02-08T18:57:17.245Z,15.84
2024-02-08T18:59:46.533Z,15.88
2024-02-08T19:02:17.920Z,16.01
2024-02-08T19:04:46.415Z,15.83
2024-02-08T19:07:13.969Z,15.94
2024-02-08T19:09:41.714Z,16.13
2024-02-08T19:12:10.758Z,16.14
2024-02-08T19:14:38.471Z,16.00
2024-02-08T19:17:08.758Z,15.97
2024-02-08T19:19:36.655Z,15.96
2024-02-08T19:22:13.190Z,16.01
2024-02-08T19:24:41.761Z,15.81
2024-02-08T19:27:09.380Z,15.97
2024-02-08T19:29:37.369Z,16.03
2024-02-08T19:32:08.720Z,16.08
2024-02-08T19:34:40.216Z,16.03
2024-02-08T19:37:08.368Z,16.10
2024-02-08T19:39:37.917Z,16.16
2024-02-08T19:42:19.308Z,16.25
2024-02-08T19:44:53.382Z,16.19
2024-02-08T19:47:24.762Z,16.16
2024-02-08T19:49:53.406Z,16.22
2024-02-08T19:52:22.015Z,16.27
2024-02-08T19:54:51.673Z,16.26
2024-02-08T19:57:22.332Z,16.28
2024-02-08T19:59:50.871Z,16.31
2024-02-08T20:02:31.095Z,16.33
2024-02-08T20:05:01.869Z,16.35
2024-02-08T20:07:31.317Z,16.38
2024-02-08T20:09:59.295Z,16.29
2024-02-08T20:12:27.249Z,16.22
2024-02-08T20:14:54.788Z,16.21
2024-02-08T20:19:58.271Z,16.33
2024-02-08T20:22:27.827Z,16.31
2024-02-08T20:24:57.569Z,16.29
2024-02-08T20:27:25.169Z,16.12
2024-02-08T20:29:53.301Z,16.20
2024-02-08T20:32:21.090Z,16.30
2024-02-08T20:34:49.083Z,16.33
2024-02-08T20:37:16.898Z,16.15
2024-02-08T20:39:48.327Z,16.10
2024-02-08T20:42:20.404Z,16.06
2024-02-08T20:44:49.418Z,16.15
2024-02-08T20:47:16.976Z,16.25
2024-02-08T20:49:46.460Z,16.27
2024-02-08T20:52:14.409Z,16.35
2024-02-08T20:54:45.561Z,16.33
2024-02-08T20:57:18.864Z,16.35
2024-02-08T20:59:47.660Z,16.35
2024-02-08T21:02:17.221Z,16.31
2024-02-08T21:04:46.636Z,16.30
2024-02-08T21:07:17.657Z,16.37
2024-02-08T21:09:45.416Z,16.32
2024-02-08T21:12:14.371Z,16.37
2024-02-08T21:14:43.805Z,16.40
2024-02-08T21:17:12.107Z,16.41
2024-02-08T21:19:43.141Z,16.44
2024-02-08T21:22:13.483Z,16.47
2024-02-08T21:24:41.203Z,16.48
2024-02-08T21:27:10.777Z,16.51
2024-02-08T21:29:40.696Z,16.53
2024-02-08T21:32:08.711Z,16.53
2024-02-08T21:34:36.428Z,16.61
2024-02-08T21:37:07.365Z,16.64
2024-02-08T21:39:36.066Z,16.66
2024-02-08T21:42:07.482Z,16.60
2024-02-08T21:44:39.625Z,16.58
2024-02-08T21:47:08.761Z,16.59
2024-02-08T21:49:36.176Z,16.61
2024-02-08T21:52:08.476Z,16.55
2024-02-08T21:54:36.129Z,16.55
2024-02-08T21:57:05.184Z,16.57
2024-02-08T21:59:36.854Z,16.56
2024-02-08T22:02:05.510Z,16.60
2024-02-08T22:04:34.532Z,16.58
2024-02-08T22:07:02.047Z,16.58
2024-02-08T22:09:30.523Z,16.62
2024-02-08T22:11:59.924Z,16.67
2024-02-08T22:14:28.749Z,16.65
2024-02-08T22:16:57.210Z,16.58
2024-02-08T22:19:26.447Z,16.59
2024-02-08T22:21:55.350Z,16.54
2024-02-08T22:24:22.904Z,16.59
2024-02-08T22:26:52.697Z,16.61
2024-02-08T22:29:20.526Z,16.59
2024-02-08T22:31:49.925Z,16.60
2024-02-08T22:34:18.650Z,16.53
2024-02-08T22:36:46.248Z,16.58
2024-02-08T22:39:15.280Z,16.60
2024-02-08T22:41:43.120Z,16.59
2024-02-08T22:44:10.647Z,16.62
2024-02-08T22:46:40.111Z,16.65
2024-02-08T22:49:07.796Z,16.63
2024-02-08T22:51:35.403Z,16.64
2024-02-08T22:54:08.945Z,16.62
2024-02-08T22:56:38.097Z,16.65
2024-02-08T22:59:05.650Z,16.67
2024-02-08T23:01:37.984Z,16.69
2024-02-08T23:04:06.589Z,16.75
2024-02-08T23:06:36.485Z,16.72
2024-02-08T23:09:06.411Z,16.74
2024-02-08T23:11:34.359Z,16.74
2024-02-08T23:14:03.721Z,16.73
2024-02-08T23:16:32.322Z,16.76
2024-02-08T23:19:01.073Z,16.74
2024-02-08T23:21:29.531Z,16.73
2024-02-08T23:23:57.260Z,16.63
2024-02-08T23:26:24.772Z,16.60
2024-02-08T23:28:53.571Z,16.60
2024-02-08T23:31:22.567Z,16.61
2024-02-08T23:33:50.024Z,16.64
2024-02-08T23:36:20.538Z,16.65
2024-02-08T23:38:48.100Z,16.63
2024-02-08T23:41:15.675Z,16.63
2024-02-08T23:43:43.227Z,16.61
2024-02-08T23:46:10.772Z,16.59
2024-02-08T23:48:39.714Z,16.56
2024-02-08T23:51:07.293Z,16.62
2024-02-08T23:53:34.792Z,16.78
2024-02-08T23:56:02.285Z,16.82
2024-02-08T23:58:29.813Z,16.82
